Time;durP1;ratioP1;P1;durP2;ratioP2;P2;SDS_P1;SDS_P2;PMS_P1;PMS_P2;Temp;Humidity;BMP_temperature;BMP_pressure;BME280_temperature;BME280_humidity;BME280_pressure;Samples;Min_cycle;Max_cycle;Signal;HPM_P1;HPM_P2
2024/03/27 00:02:22;;;;;;;24.52;14.20;;;7.00;99.90;;;;;;5013417;28;20094;-73
2024/03/27 00:04:47;;;;;;;24.83;13.82;;;7.00;99.90;;;;;;5014059;28;20058;-73
2024/03/27 00:07:16;;;;;;;24.88;14.02;;;7.00;99.90;;;;;;5014183;28;20034;-73
2024/03/27 00:09:42;;;;;;;27.13;14.75;;;7.00;99.90;;;;;;5014714;28;20041;-74
2024/03/27 00:12:07;;;;;;;27.15;14.10;;;7.00;99.90;;;;;;5013481;28;20554;-73
2024/03/27 00:14:33;;;;;;;28.33;14.05;;;6.90;99.90;;;;;;5012601;28;20034;-73
2024/03/27 00:16:59;;;;;;;26.33;14.55;;;6.90;99.90;;;;;;5015121;28;20113;-73
2024/03/27 00:19:24;;;;;;;28.80;13.85;;;6.90;99.90;;;;;;5014090;28;20037;-74
2024/03/27 00:21:50;;;;;;;28.85;14.40;;;6.90;99.90;;;;;;5016065;28;20065;-73
2024/03/27 00:24:15;;;;;;;27.50;14.82;;;6.90;99.90;;;;;;5012968;28;20034;-74
2024/03/27 00:26:41;;;;;;;26.60;14.57;;;6.90;99.90;;;;;;5012863;28;20025;-73
2024/03/27 00:29:08;;;;;;;25.98;13.80;;;6.80;99.90;;;;;;5014414;28;20046;-74
2024/03/27 00:31:33;;;;;;;27.27;14.65;;;6.80;99.90;;;;;;5014374;28;20021;-74
2024/03/27 00:33:59;;;;;;;34.05;15.07;;;6.80;99.90;;;;;;5014488;28;21374;-74
2024/03/27 00:36:24;;;;;;;29.45;14.50;;;6.80;99.90;;;;;;5013122;28;20022;-74
2024/03/27 00:38:50;;;;;;;27.90;14.00;;;6.80;99.90;;;;;;5013181;28;20037;-74
2024/03/27 00:41:15;;;;;;;26.50;14.52;;;6.80;99.90;;;;;;5014223;28;20037;-73
2024/03/27 00:43:41;;;;;;;26.85;13.93;;;6.80;99.90;;;;;;5012530;28;20038;-74
2024/03/27 00:46:07;;;;;;;24.75;14.13;;;6.80;99.90;;;;;;5014215;28;20026;-73
2024/03/27 00:48:33;;;;;;;31.15;14.98;;;6.70;99.90;;;;;;5014309;28;20018;-73
2024/03/27 00:50:59;;;;;;;28.08;14.18;;;6.70;99.90;;;;;;5014481;28;20034;-73
2024/03/27 00:53:25;;;;;;;26.20;14.48;;;6.70;99.90;;;;;;5013581;28;20143;-73
2024/03/27 00:55:54;;;;;;;33.70;15.68;;;6.60;99.90;;;;;;5013728;28;20030;-73
2024/03/27 00:58:20;;;;;;;26.38;14.02;;;6.60;99.90;;;;;;5011453;28;20115;-74
2024/03/27 01:00:45;;;;;;;26.48;14.30;;;6.60;99.90;;;;;;5013817;28;20042;-73
2024/03/27 01:03:11;;;;;;;28.83;14.70;;;6.60;99.90;;;;;;5013115;28;20050;-73
2024/03/27 01:05:40;;;;;;;27.80;14.52;;;6.60;99.90;;;;;;5013992;28;20052;-74
2024/03/27 01:08:06;;;;;;;30.90;14.45;;;6.50;99.90;;;;;;5036948;28;20022;-73
2024/03/27 01:10:32;;;;;;;26.40;13.98;;;6.50;99.90;;;;;;5013651;28;20026;-73
2024/03/27 01:12:57;;;;;;;26.25;14.60;;;6.50;99.90;;;;;;5012383;28;20026;-73
2024/03/27 01:15:23;;;;;;;30.40;14.73;;;6.50;99.90;;;;;;5013677;28;20037;-73
2024/03/27 01:17:50;;;;;;;25.27;13.38;;;6.50;99.90;;;;;;5013429;28;20028;-74
2024/03/27 01:20:16;;;;;;;28.23;14.82;;;6.50;99.90;;;;;;5012112;28;20056;-75
2024/03/27 01:22:42;;;;;;;25.17;14.07;;;6.50;99.90;;;;;;5013148;28;20048;-73
2024/03/27 01:25:08;;;;;;;25.95;14.48;;;6.40;99.90;;;;;;5012395;28;20030;-73
2024/03/27 01:27:34;;;;;;;27.17;14.35;;;6.50;99.90;;;;;;5014401;28;20022;-74
2024/03/27 01:30:00;;;;;;;27.38;15.65;;;6.40;99.90;;;;;;5011823;28;20022;-73
2024/03/27 01:32:26;;;;;;;29.02;14.57;;;6.40;99.90;;;;;;5013471;28;20026;-74
2024/03/27 01:34:51;;;;;;;31.92;14.98;;;6.40;99.90;;;;;;5011918;28;20046;-73
2024/03/27 01:37:21;;;;;;;28.98;14.68;;;6.40;99.90;;;;;;5013429;28;20038;-74
2024/03/27 01:39:47;;;;;;;26.27;14.40;;;6.30;99.90;;;;;;5013303;28;21567;-73
2024/03/27 01:42:13;;;;;;;32.30;15.55;;;6.40;99.90;;;;;;5011874;28;20034;-73
2024/03/27 01:44:38;;;;;;;26.23;13.65;;;6.30;99.90;;;;;;5012701;28;20038;-73
2024/03/27 01:47:04;;;;;;;27.15;14.07;;;6.30;99.90;;;;;;5013136;28;20037;-73
2024/03/27 01:49:33;;;;;;;29.05;15.32;;;6.40;99.90;;;;;;5013048;28;20030;-73
2024/03/27 01:51:59;;;;;;;27.40;15.07;;;6.40;99.90;;;;;;5012988;28;20093;-73
2024/03/27 01:54:26;;;;;;;32.45;15.43;;;6.40;99.90;;;;;;5012435;28;20033;-73
2024/03/27 01:56:52;;;;;;;27.33;14.60;;;6.40;99.90;;;;;;5011473;28;20458;-73
2024/03/27 01:59:20;;;;;;;28.13;15.85;;;6.40;99.90;;;;;;5011223;28;20100;-74
2024/03/27 02:01:48;;;;;;;26.85;14.77;;;6.40;99.90;;;;;;5012915;28;20033;-74
2024/03/27 02:04:14;;;;;;;33.45;15.77;;;6.40;99.90;;;;;;5012422;28;20042;-72
2024/03/27 02:06:40;;;;;;;36.45;14.13;;;6.40;99.90;;;;;;5011222;28;20021;-73
2024/03/27 02:09:06;;;;;;;27.13;14.48;;;6.40;99.90;;;;;;5012509;28;20022;-73
2024/03/27 02:11:32;;;;;;;26.98;14.25;;;6.30;99.90;;;;;;5012869;28;20030;-73
2024/03/27 02:13:58;;;;;;;29.73;14.48;;;6.30;99.90;;;;;;5010844;28;20042;-73
2024/03/27 02:16:23;;;;;;;30.92;14.35;;;6.30;99.90;;;;;;5012632;28;20036;-74
2024/03/27 02:18:50;;;;;;;26.65;14.52;;;6.30;99.90;;;;;;5012792;28;20030;-74
2024/03/27 02:21:15;;;;;;;29.02;14.00;;;6.30;99.90;;;;;;5012935;28;20026;-73
2024/03/27 02:23:52;;;;;;;28.95;14.50;;;6.30;99.90;;;;;;5012600;28;20095;-72
2024/03/27 02:26:30;;;;;;;25.55;14.05;;;6.30;99.90;;;;;;5010813;28;20089;-74
2024/03/27 02:28:56;;;;;;;26.58;14.35;;;6.30;99.90;;;;;;5012102;28;21117;-74
2024/03/27 02:31:21;;;;;;;26.30;13.82;;;6.30;99.90;;;;;;5012426;28;20077;-72
2024/03/27 02:33:47;;;;;;;27.50;13.95;;;6.30;99.90;;;;;;5010853;28;20018;-74
2024/03/27 02:36:12;;;;;;;29.02;14.13;;;6.30;99.90;;;;;;5012208;28;20108;-73
2024/03/27 02:38:38;;;;;;;29.73;14.60;;;6.30;99.90;;;;;;5012767;28;20053;-74
2024/03/27 02:41:03;;;;;;;26.83;14.68;;;6.40;99.90;;;;;;5010040;28;20041;-73
2024/03/27 02:43:29;;;;;;;27.08;14.35;;;6.40;99.90;;;;;;5012249;28;20038;-73
2024/03/27 02:45:55;;;;;;;27.40;14.65;;;6.40;99.90;;;;;;5010785;28;20037;-74
2024/03/27 02:48:20;;;;;;;27.08;13.50;;;6.50;99.90;;;;;;5010615;28;20062;-72
2024/03/27 02:50:46;;;;;;;27.15;14.57;;;6.50;99.90;;;;;;5012097;28;20503;-73
2024/03/27 02:53:11;;;;;;;26.60;14.00;;;6.60;99.90;;;;;;5010967;28;20026;-74
2024/03/27 02:55:37;;;;;;;27.33;14.57;;;6.50;99.90;;;;;;5011731;28;20022;-73
2024/03/27 02:58:03;;;;;;;26.70;14.80;;;6.50;99.90;;;;;;5011783;28;20041;-73
2024/03/27 03:00:29;;;;;;;27.58;14.30;;;6.50;99.90;;;;;;5010142;28;20148;-73
2024/03/27 03:02:55;;;;;;;27.58;13.90;;;6.50;99.90;;;;;;5010483;28;20126;-73
2024/03/27 03:05:20;;;;;;;31.35;15.70;;;6.50;99.90;;;;;;5014227;28;20030;-74
2024/03/27 03:07:46;;;;;;;27.58;14.35;;;6.50;99.90;;;;;;5013387;28;20025;-74
2024/03/27 03:10:12;;;;;;;28.30;14.88;;;6.50;99.90;;;;;;5017052;28;20034;-73
2024/03/27 03:12:38;;;;;;;26.70;14.50;;;6.50;99.90;;;;;;5016054;28;20382;-73
2024/03/27 03:15:04;;;;;;;29.63;14.63;;;6.40;99.90;;;;;;5016289;28;20022;-72
2024/03/27 03:17:30;;;;;;;28.85;14.43;;;6.40;99.90;;;;;;5015605;28;20091;-73
2024/03/27 03:19:55;;;;;;;24.58;14.20;;;6.30;99.90;;;;;;5014584;28;20073;-73
2024/03/27 03:22:21;;;;;;;26.63;14.52;;;6.30;99.90;;;;;;5015909;28;20026;-73
2024/03/27 03:24:47;;;;;;;24.50;14.00;;;6.30;99.90;;;;;;5015612;28;20060;-73
2024/03/27 03:27:12;;;;;;;25.27;14.43;;;6.30;99.90;;;;;;5015638;28;20026;-73
2024/03/27 03:29:38;;;;;;;25.63;13.82;;;6.40;99.90;;;;;;5015638;28;20061;-73
2024/03/27 03:32:03;;;;;;;29.48;15.63;;;6.40;99.90;;;;;;5016092;28;20062;-73
2024/03/27 03:34:29;;;;;;;27.55;15.05;;;6.30;99.90;;;;;;5016122;28;20029;-74
2024/03/27 03:36:55;;;;;;;27.48;14.48;;;6.30;99.90;;;;;;5014215;28;20085;-74
2024/03/27 03:39:21;;;;;;;29.25;14.80;;;6.20;99.90;;;;;;5015369;28;20026;-73
2024/03/27 03:41:47;;;;;;;31.90;15.13;;;6.30;99.90;;;;;;5015727;28;20019;-74
2024/03/27 03:44:12;;;;;;;25.63;14.15;;;6.20;99.90;;;;;;5013854;28;20113;-74
2024/03/27 03:46:38;;;;;;;27.38;14.63;;;6.20;99.90;;;;;;5013883;28;20026;-74
2024/03/27 03:49:03;;;;;;;31.00;15.50;;;6.20;99.90;;;;;;5013609;28;20031;-73
2024/03/27 03:51:29;;;;;;;29.45;15.90;;;6.20;99.90;;;;;;5015113;28;20026;-73
2024/03/27 03:53:55;;;;;;;28.70;15.73;;;6.20;99.90;;;;;;5014910;28;20589;-74
2024/03/27 03:56:21;;;;;;;28.20;15.35;;;6.20;99.90;;;;;;5037364;28;20037;-73
2024/03/27 03:58:46;;;;;;;29.83;15.48;;;6.20;99.90;;;;;;5015199;28;20025;-73
2024/03/27 04:01:12;;;;;;;28.90;14.85;;;6.20;99.90;;;;;;5015038;28;20018;-73
2024/03/27 04:03:37;;;;;;;31.20;15.18;;;6.10;99.90;;;;;;5014664;28;20050;-73
2024/03/27 04:06:03;;;;;;;27.70;14.45;;;6.10;99.90;;;;;;5014883;28;20048;-73
2024/03/27 04:08:29;;;;;;;29.88;15.40;;;6.00;99.90;;;;;;5014964;28;20062;-73
2024/03/27 04:10:54;;;;;;;29.67;14.48;;;5.90;99.90;;;;;;5015413;28;20180;-73
2024/03/27 04:13:20;;;;;;;31.42;15.63;;;6.00;99.90;;;;;;5014783;28;20019;-74
2024/03/27 04:15:46;;;;;;;30.42;15.77;;;5.90;99.90;;;;;;5015163;28;20098;-73
2024/03/27 04:18:11;;;;;;;30.23;15.52;;;5.90;99.90;;;;;;5012801;28;20026;-73
2024/03/27 04:20:41;;;;;;;34.65;15.68;;;5.90;99.90;;;;;;5014413;28;20101;-73
2024/03/27 04:23:07;;;;;;;28.40;15.57;;;6.10;99.90;;;;;;5014685;28;20034;-74
2024/03/27 04:25:32;;;;;;;29.70;15.57;;;5.90;99.90;;;;;;5013303;28;20411;-74
2024/03/27 04:27:58;;;;;;;33.53;16.80;;;5.90;99.90;;;;;;5014078;28;20032;-74
2024/03/27 04:30:24;;;;;;;32.35;16.30;;;5.90;99.90;;;;;;5014774;28;20022;-74
2024/03/27 04:32:49;;;;;;;35.90;16.50;;;5.70;99.90;;;;;;5014534;28;20078;-74
2024/03/27 04:35:15;;;;;;;31.27;15.70;;;5.80;99.90;;;;;;5014209;28;20021;-74
2024/03/27 04:37:41;;;;;;;30.88;16.25;;;5.80;99.90;;;;;;5013385;28;20369;-74
2024/03/27 04:40:11;;;;;;;33.00;15.85;;;5.80;99.90;;;;;;5014104;28;20053;-74
2024/03/27 04:42:37;;;;;;;30.02;15.65;;;5.70;99.90;;;;;;5014335;28;20018;-75
2024/03/27 04:45:04;;;;;;;33.60;17.23;;;5.70;99.90;;;;;;5012764;28;20435;-74
2024/03/27 04:47:30;;;;;;;33.03;15.85;;;5.70;99.90;;;;;;5013868;28;20018;-75
2024/03/27 04:49:56;;;;;;;32.88;16.55;;;5.70;99.90;;;;;;5012637;28;20068;-75
2024/03/27 04:52:21;;;;;;;30.38;16.05;;;5.70;99.90;;;;;;5014544;28;21491;-75
2024/03/27 04:54:47;;;;;;;29.40;16.45;;;5.70;99.90;;;;;;5012519;28;21061;-75
2024/03/27 04:57:13;;;;;;;31.90;16.15;;;5.60;99.90;;;;;;5014470;28;20145;-74
2024/03/27 04:59:39;;;;;;;31.67;16.50;;;5.60;99.90;;;;;;5014234;28;20129;-74
2024/03/27 05:02:05;;;;;;;28.95;16.65;;;5.80;99.90;;;;;;5013506;28;20084;-74
2024/03/27 05:04:32;;;;;;;29.55;16.58;;;5.70;99.90;;;;;;5012359;28;20046;-74
2024/03/27 05:06:57;;;;;;;30.90;16.42;;;5.70;99.90;;;;;;5014196;28;20082;-74
2024/03/27 05:09:23;;;;;;;34.90;16.02;;;5.70;99.90;;;;;;5013578;28;20046;-76
2024/03/27 05:11:49;;;;;;;33.40;16.50;;;5.70;99.90;;;;;;5013777;28;20029;-75
2024/03/27 05:14:14;;;;;;;30.42;15.88;;;5.70;99.90;;;;;;5013221;28;20040;-76
2024/03/27 05:16:40;;;;;;;33.33;16.17;;;5.70;99.90;;;;;;5014014;28;20088;-75
2024/03/27 05:19:05;;;;;;;32.17;16.00;;;5.80;99.90;;;;;;5012201;28;20029;-74
2024/03/27 05:21:32;;;;;;;30.80;16.55;;;5.80;99.90;;;;;;5013517;28;20029;-74
2024/03/27 05:23:57;;;;;;;30.42;16.48;;;5.80;99.90;;;;;;5014670;28;20034;-75
2024/03/27 05:26:23;;;;;;;37.08;17.45;;;5.90;99.90;;;;;;5013148;28;20075;-77
2024/03/27 05:28:49;;;;;;;32.63;17.27;;;5.80;99.90;;;;;;5012456;28;20072;-75
2024/03/27 05:31:15;;;;;;;32.42;17.13;;;5.80;99.90;;;;;;5012403;28;20034;-75
2024/03/27 05:33:40;;;;;;;31.95;16.73;;;5.90;99.90;;;;;;5014474;28;20076;-77
2024/03/27 05:36:07;;;;;;;32.20;16.45;;;5.80;99.90;;;;;;5013599;28;20486;-76
2024/03/27 05:38:32;;;;;;;33.03;16.65;;;5.80;99.90;;;;;;5015224;28;20044;-75
2024/03/27 05:40:58;;;;;;;30.67;16.15;;;5.80;99.90;;;;;;5015107;28;20069;-76
2024/03/27 05:43:24;;;;;;;32.20;17.45;;;5.80;99.90;;;;;;5013584;28;20110;-74
2024/03/27 05:45:50;;;;;;;32.53;16.75;;;5.80;99.90;;;;;;5015245;28;20064;-75
2024/03/27 05:48:16;;;;;;;39.63;17.40;;;5.90;99.90;;;;;;5013605;28;20015;-74
2024/03/27 05:50:41;;;;;;;29.65;16.20;;;5.90;99.90;;;;;;5011666;28;20034;-75
2024/03/27 05:53:07;;;;;;;41.60;17.30;;;5.90;99.90;;;;;;5012881;28;20045;-75
2024/03/27 05:55:33;;;;;;;32.47;16.77;;;5.90;99.90;;;;;;5013368;28;20026;-75
2024/03/27 05:57:58;;;;;;;32.45;17.35;;;6.00;99.90;;;;;;5011945;28;20026;-75
2024/03/27 06:00:24;;;;;;;30.83;16.98;;;6.00;99.90;;;;;;5010504;28;20093;-75
2024/03/27 06:02:51;;;;;;;34.53;16.67;;;6.00;99.90;;;;;;5010990;28;20054;-75
2024/03/27 06:05:17;;;;;;;32.40;16.20;;;6.10;99.90;;;;;;5013104;28;20026;-75
2024/03/27 06:07:42;;;;;;;33.90;16.65;;;6.20;99.90;;;;;;5012228;28;20405;-76
2024/03/27 06:10:08;;;;;;;34.08;16.25;;;6.30;99.90;;;;;;5013218;28;20034;-76
2024/03/27 06:12:33;;;;;;;30.30;15.93;;;6.30;99.90;;;;;;5010772;28;20073;-76
2024/03/27 06:14:59;;;;;;;29.88;15.95;;;6.40;99.90;;;;;;5012110;28;20022;-75
2024/03/27 06:17:25;;;;;;;29.77;15.38;;;6.50;99.90;;;;;;5013003;28;20057;-75
2024/03/27 06:19:50;;;;;;;30.38;15.77;;;6.70;99.90;;;;;;5013039;28;20026;-77
2024/03/27 06:22:16;;;;;;;31.65;16.30;;;6.80;99.90;;;;;;5011345;28;20049;-74
2024/03/27 06:24:42;;;;;;;30.05;15.98;;;6.90;99.90;;;;;;5010745;28;20049;-75
2024/03/27 06:27:07;;;;;;;30.73;15.82;;;7.10;99.90;;;;;;5010927;28;20026;-76
2024/03/27 06:29:33;;;;;;;28.23;15.25;;;7.20;99.90;;;;;;5012358;28;21741;-74
2024/03/27 06:31:58;;;;;;;31.63;15.55;;;7.20;99.90;;;;;;5013605;28;20057;-75
2024/03/27 06:34:24;;;;;;;28.27;14.93;;;7.30;99.90;;;;;;5014848;28;20057;-76
2024/03/27 06:36:50;;;;;;;28.75;14.30;;;7.40;99.90;;;;;;5014916;28;20030;-76
2024/03/27 06:39:15;;;;;;;27.77;14.13;;;7.50;99.90;;;;;;5011220;28;20049;-75
2024/03/27 06:41:42;;;;;;;25.40;14.60;;;7.60;99.90;;;;;;5013297;28;20105;-75
2024/03/27 06:44:08;;;;;;;28.58;15.30;;;7.70;99.90;;;;;;5012356;28;20046;-74
2024/03/27 06:46:36;;;;;;;27.33;15.10;;;7.80;99.90;;;;;;5013471;28;20026;-74
2024/03/27 06:49:31;;;;;;;26.20;14.70;;;7.90;99.90;;;;;;5012632;28;20033;-74
2024/03/27 06:51:51;;;;;;;32.10;14.77;;;8.00;99.90;;;;;;5012326;28;20052;-74
2024/03/27 06:54:17;;;;;;;25.40;14.35;;;8.00;99.90;;;;;;5018655;28;20026;-76
2024/03/27 06:56:45;;;;;;;28.17;14.90;;;8.00;99.90;;;;;;5013490;28;20033;-75
2024/03/27 06:59:11;;;;;;;28.30;13.85;;;8.10;99.90;;;;;;5013623;28;20112;-76
2024/03/27 07:01:36;;;;;;;35.03;16.13;;;8.20;99.90;;;;;;5025481;28;20066;-75
2024/03/27 07:04:03;;;;;;;30.10;14.93;;;8.20;99.90;;;;;;5011872;28;21461;-75
2024/03/27 07:06:29;;;;;;;29.73;16.58;;;8.30;99.90;;;;;;5012383;28;20036;-75
2024/03/27 07:08:54;;;;;;;30.55;15.98;;;8.40;99.90;;;;;;5010802;28;20053;-76
2024/03/27 07:11:20;;;;;;;27.05;15.30;;;8.40;99.90;;;;;;5009279;28;20062;-76
2024/03/27 07:13:45;;;;;;;26.75;15.23;;;8.40;99.90;;;;;;5011521;28;20022;-76
2024/03/27 07:16:11;;;;;;;27.73;14.40;;;8.40;99.90;;;;;;5010544;28;20029;-75
2024/03/27 07:18:36;;;;;;;29.52;15.20;;;8.40;99.90;;;;;;5011756;28;20029;-74
2024/03/27 07:21:02;;;;;;;31.20;15.48;;;8.50;99.90;;;;;;5012411;28;20034;-74
2024/03/27 07:23:27;;;;;;;29.05;14.32;;;8.60;99.90;;;;;;5012066;28;20045;-75
2024/03/27 07:25:54;;;;;;;31.67;15.02;;;8.60;99.90;;;;;;5010611;28;20074;-74
2024/03/27 07:28:20;;;;;;;26.38;14.13;;;8.70;99.90;;;;;;5010043;28;20037;-74
2024/03/27 07:30:50;;;;;;;26.23;13.43;;;8.70;99.90;;;;;;5010501;28;20030;-74
2024/03/27 07:33:15;;;;;;;27.55;14.98;;;8.90;99.90;;;;;;5011781;28;20582;-74
2024/03/27 07:35:41;;;;;;;26.27;14.35;;;8.90;99.90;;;;;;5012005;28;20136;-74
2024/03/27 07:38:07;;;;;;;30.77;15.13;;;9.00;99.90;;;;;;5011320;28;20030;-73
2024/03/27 07:40:32;;;;;;;26.80;14.48;;;9.10;99.90;;;;;;5010609;28;20036;-75
2024/03/27 07:42:58;;;;;;;27.38;13.68;;;9.20;99.90;;;;;;5009909;28;20042;-74
2024/03/27 07:45:24;;;;;;;28.80;14.07;;;9.30;99.90;;;;;;5010203;28;20046;-75
2024/03/27 07:47:49;;;;;;;22.58;13.07;;;9.40;99.90;;;;;;5011045;28;20033;-73
2024/03/27 07:50:15;;;;;;;22.67;13.20;;;9.50;99.90;;;;;;5011275;28;20045;-74
2024/03/27 07:52:42;;;;;;;27.27;13.82;;;9.60;99.90;;;;;;5011750;28;20027;-74
2024/03/27 07:55:08;;;;;;;28.15;14.40;;;9.60;99.90;;;;;;5012735;28;20025;-77
2024/03/27 07:57:34;;;;;;;26.90;14.15;;;9.60;99.90;;;;;;5015108;28;20032;-75
2024/03/27 08:00:00;;;;;;;24.95;13.68;;;9.60;99.90;;;;;;5013484;28;20030;-74
2024/03/27 08:02:26;;;;;;;26.58;13.50;;;9.60;99.90;;;;;;5027953;28;20035;-75
2024/03/27 08:04:52;;;;;;;28.60;14.30;;;9.80;99.90;;;;;;5014054;28;20104;-74
2024/03/27 08:07:19;;;;;;;25.30;13.48;;;9.90;99.90;;;;;;5014625;28;20064;-76
2024/03/27 08:09:52;;;;;;;27.73;14.90;;;10.00;99.90;;;;;;5011977;28;20029;-75
2024/03/27 08:12:18;;;;;;;26.27;14.60;;;10.10;99.90;;;;;;5019676;28;20025;-74
2024/03/27 08:14:44;;;;;;;22.77;12.75;;;10.30;99.90;;;;;;5017280;28;20029;-75
2024/03/27 08:17:10;;;;;;;23.48;14.30;;;10.40;99.90;;;;;;5012984;28;20077;-75
2024/03/27 08:19:40;;;;;;;24.27;13.93;;;10.60;99.90;;;;;;5015192;28;20031;-75
2024/03/27 08:22:06;;;;;;;25.25;14.38;;;10.70;99.90;;;;;;5027534;28;20030;-74
2024/03/27 08:24:32;;;;;;;25.00;13.70;;;10.80;99.90;;;;;;5014251;28;20037;-75
2024/03/27 08:26:57;;;;;;;25.95;13.57;;;10.80;99.90;;;;;;5030792;28;20395;-74
2024/03/27 08:29:23;;;;;;;26.00;13.93;;;10.80;99.90;;;;;;5015917;28;20037;-76
2024/03/27 08:31:49;;;;;;;26.73;14.02;;;10.80;99.90;;;;;;5014672;28;20027;-75
2024/03/27 08:34:14;;;;;;;22.17;13.70;;;10.80;99.90;;;;;;5015430;28;20031;-74
2024/03/27 08:36:40;;;;;;;24.02;13.52;;;10.90;99.90;;;;;;5015461;28;21090;-74
2024/03/27 08:39:07;;;;;;;23.70;12.85;;;11.20;99.90;;;;;;5012292;28;20026;-76
2024/03/27 08:41:33;;;;;;;23.67;13.50;;;11.50;99.90;;;;;;5016939;28;20022;-75
2024/03/27 08:44:02;;;;;;;22.33;12.95;;;11.90;99.90;;;;;;5015142;28;20482;-75
2024/03/27 08:46:28;;;;;;;23.10;13.30;;;12.40;99.90;;;;;;5015397;28;20113;-75
2024/03/27 08:48:54;;;;;;;22.65;13.57;;;12.70;99.90;;;;;;5013109;28;20053;-75
2024/03/27 08:51:21;;;;;;;21.30;13.13;;;12.90;99.90;;;;;;5013528;28;20019;-75
2024/03/27 08:53:47;;;;;;;21.75;12.93;;;13.10;99.90;;;;;;5014146;28;20323;-76
2024/03/27 08:56:13;;;;;;;19.58;12.13;;;13.20;99.90;;;;;;5013971;28;20550;-77
2024/03/27 08:58:39;;;;;;;19.95;12.82;;;13.50;99.90;;;;;;5013284;28;20042;-76
2024/03/27 09:01:06;;;;;;;20.45;12.90;;;13.90;99.90;;;;;;5012192;28;20038;-75
2024/03/27 09:03:31;;;;;;;19.27;12.38;;;14.10;99.90;;;;;;5013867;28;20077;-77
2024/03/27 09:05:57;;;;;;;23.23;12.52;;;14.20;99.90;;;;;;5012702;28;20039;-74
2024/03/27 09:08:23;;;;;;;20.67;12.35;;;14.30;99.90;;;;;;5014272;28;20022;-74
2024/03/27 09:10:48;;;;;;;21.52;12.98;;;14.30;99.90;;;;;;5012410;28;20021;-76
2024/03/27 09:13:14;;;;;;;19.35;12.13;;;14.50;99.90;;;;;;5013081;28;20030;-75
2024/03/27 09:15:39;;;;;;;24.52;11.95;;;14.60;99.90;;;;;;5014199;28;20056;-75
2024/03/27 09:18:05;;;;;;;20.30;12.85;;;14.50;99.90;;;;;;5013613;28;20062;-75
2024/03/27 09:20:32;;;;;;;19.33;12.98;;;14.50;99.90;;;;;;5010651;28;20042;-75
2024/03/27 09:22:57;;;;;;;20.90;12.63;;;14.50;99.90;;;;;;5028656;28;20046;-76
2024/03/27 09:25:23;;;;;;;20.05;12.43;;;14.50;99.90;;;;;;5014722;28;20028;-75
2024/03/27 09:27:48;;;;;;;18.85;11.93;;;14.60;99.90;;;;;;5013996;28;20026;-77
2024/03/27 09:30:16;;;;;;;18.77;12.23;;;14.90;99.90;;;;;;5011772;28;20058;-75
2024/03/27 09:32:42;;;;;;;18.38;11.88;;;15.10;99.90;;;;;;5013549;28;20040;-74
2024/03/27 09:35:09;;;;;;;21.63;12.30;;;15.10;99.90;;;;;;5013369;28;20045;-76
2024/03/27 09:37:34;;;;;;;20.33;11.68;;;15.10;99.90;;;;;;5012229;28;20072;-74
2024/03/27 09:40:00;;;;;;;19.73;12.07;;;15.00;99.90;;;;;;5035386;28;20112;-76
2024/03/27 09:42:28;;;;;;;19.30;11.75;;;15.10;99.90;;;;;;5013180;28;20041;-76
2024/03/27 09:44:54;;;;;;;18.77;11.82;;;15.30;99.90;;;;;;5011388;28;20058;-75
2024/03/27 09:47:21;;;;;;;15.90;10.98;;;15.70;99.90;;;;;;5013091;28;20034;-76
2024/03/27 09:49:48;;;;;;;19.77;11.65;;;16.10;99.90;;;;;;5013716;28;20042;-73
2024/03/27 09:52:15;;;;;;;20.08;10.90;;;16.30;99.90;;;;;;5010070;28;20053;-77
2024/03/27 09:54:41;;;;;;;20.50;10.32;;;16.50;99.90;;;;;;5013018;28;20057;-75
2024/03/27 09:57:08;;;;;;;15.13;10.55;;;16.60;99.90;;;;;;5010489;28;20030;-75
2024/03/27 09:59:34;;;;;;;18.30;10.57;;;16.60;99.90;;;;;;5011397;28;20016;-74
2024/03/27 10:02:01;;;;;;;18.10;11.25;;;16.50;99.90;;;;;;5011668;28;20113;-73
2024/03/27 10:04:26;;;;;;;16.55;11.23;;;16.30;99.90;;;;;;5011162;28;20046;-74
2024/03/27 10:06:53;;;;;;;18.08;11.32;;;16.10;99.90;;;;;;5011037;28;20022;-73
2024/03/27 10:09:19;;;;;;;16.13;10.88;;;16.00;99.90;;;;;;5012698;28;21598;-75
2024/03/27 10:11:45;;;;;;;16.38;10.77;;;16.10;99.90;;;;;;5011889;28;20086;-74
2024/03/27 10:14:10;;;;;;;16.55;10.98;;;16.20;99.90;;;;;;5010846;28;20045;-75
2024/03/27 10:16:36;;;;;;;16.35;10.55;;;16.20;99.90;;;;;;5012262;28;20030;-75
2024/03/27 10:19:02;;;;;;;16.67;11.10;;;16.30;99.90;;;;;;5011832;28;20118;-74
2024/03/27 10:21:28;;;;;;;16.23;10.82;;;16.40;99.90;;;;;;5011749;28;20022;-73
2024/03/27 10:23:54;;;;;;;16.98;10.93;;;16.50;99.90;;;;;;5010951;28;20069;-75
2024/03/27 10:26:19;;;;;;;19.90;11.35;;;16.50;99.90;;;;;;5009720;28;20026;-73
2024/03/27 10:28:45;;;;;;;19.65;10.95;;;16.80;99.90;;;;;;5012520;28;20030;-74
2024/03/27 10:31:10;;;;;;;18.88;10.98;;;17.00;99.90;;;;;;5012274;28;20026;-74
2024/03/27 10:33:36;;;;;;;17.05;10.80;;;17.00;99.90;;;;;;5012921;28;20284;-75
2024/03/27 10:36:04;;;;;;;17.17;10.77;;;17.10;99.90;;;;;;5012082;28;20420;-75
2024/03/27 10:38:30;;;;;;;18.02;10.68;;;17.20;99.90;;;;;;5012561;28;20022;-74
2024/03/27 10:40:57;;;;;;;20.02;11.18;;;17.20;99.90;;;;;;5011571;28;20031;-75
2024/03/27 10:43:34;;;;;;;18.27;11.30;;;17.20;99.90;;;;;;5010973;28;20062;-74
2024/03/27 10:46:02;;;;;;;20.42;11.80;;;17.30;99.90;;;;;;5010317;28;20026;-73
2024/03/27 10:48:28;;;;;;;16.75;10.63;;;17.30;99.90;;;;;;5009028;28;20045;-75
2024/03/27 10:50:55;;;;;;;17.13;10.68;;;17.40;99.90;;;;;;5011613;28;20030;-74
2024/03/27 10:53:21;;;;;;;18.75;11.20;;;17.50;99.90;;;;;;5011161;28;20030;-76
2024/03/27 10:55:48;;;;;;;22.83;11.98;;;17.30;99.90;;;;;;5011951;28;20066;-74
2024/03/27 10:58:14;;;;;;;19.30;12.13;;;17.40;99.90;;;;;;5010522;28;20102;-74
2024/03/27 11:00:40;;;;;;;18.75;11.00;;;17.40;99.90;;;;;;5010422;28;20537;-74
2024/03/27 11:03:08;;;;;;;20.77;12.45;;;17.40;99.90;;;;;;5010045;28;20046;-73
2024/03/27 11:05:34;;;;;;;22.35;12.60;;;17.40;99.90;;;;;;5011759;28;20486;-75
2024/03/27 11:07:59;;;;;;;23.55;12.98;;;17.30;99.90;;;;;;5010186;28;20026;-72
2024/03/27 11:10:26;;;;;;;25.85;13.82;;;17.30;99.90;;;;;;5011616;28;20073;-73
2024/03/27 11:12:52;;;;;;;24.17;13.40;;;17.30;99.90;;;;;;5012622;28;20045;-74
2024/03/27 11:15:18;;;;;;;26.73;13.52;;;17.40;99.90;;;;;;5010067;28;20025;-74
2024/03/27 11:17:53;;;;;;;21.48;13.23;;;17.40;99.90;;;;;;5009975;28;20042;-74
2024/03/27 11:20:22;;;;;;;20.40;12.85;;;17.50;99.90;;;;;;5012283;28;20026;-76
2024/03/27 11:22:48;;;;;;;18.63;12.70;;;17.60;99.90;;;;;;5010606;28;20122;-75
2024/03/27 11:25:14;;;;;;;22.58;13.70;;;17.70;99.90;;;;;;5012591;28;20030;-73
2024/03/27 11:27:40;;;;;;;23.63;12.82;;;17.70;99.90;;;;;;5026118;28;20403;-73
2024/03/27 11:30:06;;;;;;;19.08;12.77;;;17.70;99.90;;;;;;5015826;28;20069;-74
2024/03/27 11:32:33;;;;;;;24.90;13.45;;;17.80;99.90;;;;;;5016582;28;20044;-73
2024/03/27 11:35:00;;;;;;;19.25;13.13;;;18.00;99.90;;;;;;5015922;28;20041;-74
2024/03/27 11:37:27;;;;;;;21.85;12.13;;;18.00;99.90;;;;;;5015760;28;20053;-73
2024/03/27 11:39:53;;;;;;;22.13;12.65;;;18.00;99.90;;;;;;5015674;28;20022;-74
2024/03/27 11:42:19;;;;;;;21.65;13.27;;;18.20;99.90;;;;;;5016412;28;20098;-75
2024/03/27 11:44:48;;;;;;;23.00;13.15;;;18.50;99.90;;;;;;5013989;28;20089;-73
2024/03/27 11:47:17;;;;;;;18.90;13.10;;;;;;;;;;5014615;28;20036;-74
2024/03/27 11:49:44;;;;;;;19.35;12.02;;;;;;;;;;5037959;28;20026;-73
2024/03/27 11:52:10;;;;;;;21.92;13.18;;;;;;;;;;5015145;28;20033;-74
2024/03/27 11:54:36;;;;;;;18.80;11.88;;;;;;;;;;5015487;28;20026;-71
2024/03/27 11:57:02;;;;;;;22.90;12.93;;;;;;;;;;5014627;28;20050;-74
2024/03/27 11:59:28;;;;;;;20.63;12.60;;;18.80;99.90;;;;;;5013771;28;20026;-72
2024/03/27 12:01:53;;;;;;;18.02;11.68;;;19.30;99.90;;;;;;5009013;28;20026;-73
2024/03/27 12:04:20;;;;;;;18.92;12.90;;;19.30;99.90;;;;;;5010834;28;20053;-72
2024/03/27 12:06:47;;;;;;;21.33;12.13;;;19.40;99.90;;;;;;5014414;28;20446;-75
2024/03/27 12:09:16;;;;;;;19.38;10.30;;;;;;;;;;5015174;28;20029;-74
2024/03/27 12:11:43;;;;;;;16.38;9.57;;;;;;;;;;5012762;28;20387;-73
2024/03/27 12:14:18;;;;;;;14.13;9.07;;;19.60;99.90;;;;;;5014384;28;20246;-74
2024/03/27 12:16:45;;;;;;;12.13;8.35;;;19.80;99.90;;;;;;5013270;28;20033;-76
2024/03/27 12:19:11;;;;;;;17.08;10.20;;;19.50;99.90;;;;;;5014145;28;20053;-74
2024/03/27 12:21:40;;;;;;;16.92;8.98;;;19.30;99.90;;;;;;5015045;28;20026;-74
2024/03/27 12:24:06;;;;;;;13.10;8.55;;;19.30;99.90;;;;;;5013928;28;20054;-73
2024/03/27 12:26:32;;;;;;;14.40;8.07;;;19.10;99.90;;;;;;5015937;28;20409;-74
2024/03/27 12:28:58;;;;;;;13.10;8.60;;;19.10;99.90;;;;;;5015184;28;20479;-74
2024/03/27 12:31:26;;;;;;;13.48;8.85;;;19.20;99.90;;;;;;5014676;28;20050;-77